sensor_id;sensor_type;location;lat;lon;timestamp;pressure;altitude;pressure_sealevel;temperature;humidity
65897;BME280;52677;50.898;10.854;2022-10-29T00:00:54;99137.53;;;15.07;88.42
65897;BME280;52677;50.898;10.854;2022-10-29T00:02:55;99149.47;;;15.11;88.52
65897;BME280;52677;50.898;10.854;2022-10-29T00:04:55;99143.09;;;15.11;88.01
65897;BME280;52677;50.898;10.854;2022-10-29T00:06:55;99145.09;;;15.10;88.93
65897;BME280;52677;50.898;10.854;2022-10-29T00:08:55;99152.25;;;15.08;88.36
65897;BME280;52677;50.898;10.854;2022-10-29T00:11:10;99139.88;;;15.05;88.61
65897;BME280;52677;50.898;10.854;2022-10-29T00:13:11;99145.88;;;15.07;88.25
65897;BME280;52677;50.898;10.854;2022-10-29T00:15:11;99138.31;;;15.08;88.29
65897;BME280;52677;50.898;10.854;2022-10-29T00:17:11;99139.91;;;15.09;88.03
65897;BME280;52677;50.898;10.854;2022-10-29T00:19:11;99137.09;;;15.05;87.91
65897;BME280;52677;50.898;10.854;2022-10-29T00:21:18;99133.50;;;15.05;88.17
65897;BME280;52677;50.898;10.854;2022-10-29T00:23:19;99134.31;;;15.02;87.89
65897;BME280;52677;50.898;10.854;2022-10-29T00:25:19;99135.47;;;14.97;87.77
65897;BME280;52677;50.898;10.854;2022-10-29T00:27:19;99139.84;;;14.91;87.78
65897;BME280;52677;50.898;10.854;2022-10-29T00:29:20;99147.38;;;14.83;88.44
65897;BME280;52677;50.898;10.854;2022-10-29T00:31:20;99140.94;;;14.76;88.90
65897;BME280;52677;50.898;10.854;2022-10-29T00:33:24;99138.91;;;14.69;88.80
65897;BME280;52677;50.898;10.854;2022-10-29T00:35:24;99142.47;;;14.63;89.15
65897;BME280;52677;50.898;10.854;2022-10-29T00:37:25;99133.25;;;14.55;89.59
65897;BME280;52677;50.898;10.854;2022-10-29T00:39:25;99147.19;;;14.51;89.57
65897;BME280;52677;50.898;10.854;2022-10-29T00:41:28;99147.09;;;14.44;90.14
65897;BME280;52677;50.898;10.854;2022-10-29T00:43:29;99143.47;;;14.37;90.69
65897;BME280;52677;50.898;10.854;2022-10-29T00:45:32;99143.84;;;14.31;90.35
65897;BME280;52677;50.898;10.854;2022-10-29T00:47:34;99135.41;;;14.21;91.50
65897;BME280;52677;50.898;10.854;2022-10-29T00:49:37;99145.31;;;14.18;91.94
65897;BME280;52677;50.898;10.854;2022-10-29T00:51:39;99139.69;;;14.11;92.16
65897;BME280;52677;50.898;10.854;2022-10-29T00:53:43;99135.66;;;14.05;91.78
65897;BME280;52677;50.898;10.854;2022-10-29T00:55:45;99134.44;;;13.99;92.98
65897;BME280;52677;50.898;10.854;2022-10-29T00:57:48;99135.19;;;13.92;92.69
65897;BME280;52677;50.898;10.854;2022-10-29T00:59:51;99144.66;;;13.88;93.06
65897;BME280;52677;50.898;10.854;2022-10-29T01:01:52;99133.13;;;13.82;92.75
65897;BME280;52677;50.898;10.854;2022-10-29T01:03:55;99141.78;;;13.77;93.69
65897;BME280;52677;50.898;10.854;2022-10-29T01:05:56;99140.16;;;13.72;93.80
65897;BME280;52677;50.898;10.854;2022-10-29T01:07:56;99136.16;;;13.70;93.41
65897;BME280;52677;50.898;10.854;2022-10-29T01:09:57;99132.19;;;13.67;93.43
65897;BME280;52677;50.898;10.854;2022-10-29T01:12:13;99138.13;;;13.66;93.99
65897;BME280;52677;50.898;10.854;2022-10-29T01:14:42;99148.78;;;13.60;94.38
65897;BME280;52677;50.898;10.854;2022-10-29T01:21:40;99159.38;;;13.47;94.37
65897;BME280;52677;50.898;10.854;2022-10-29T01:31:16;99154.09;;;13.35;94.23
65897;BME280;52677;50.898;10.854;2022-10-29T01:42:57;99171.09;;;13.00;96.85
65897;BME280;52677;50.898;10.854;2022-10-29T01:45:28;99169.16;;;13.04;96.15
65897;BME280;52677;50.898;10.854;2022-10-29T01:47:40;99162.72;;;12.97;96.86
65897;BME280;52677;50.898;10.854;2022-10-29T01:49:45;99168.56;;;12.88;97.83
65897;BME280;52677;50.898;10.854;2022-10-29T01:51:48;99163.34;;;12.83;97.28
65897;BME280;52677;50.898;10.854;2022-10-29T01:53:50;99170.00;;;12.78;97.60
65897;BME280;52677;50.898;10.854;2022-10-29T01:55:50;99168.34;;;12.74;97.01
65897;BME280;52677;50.898;10.854;2022-10-29T01:57:51;99169.88;;;12.68;98.38
65897;BME280;52677;50.898;10.854;2022-10-29T01:59:51;99172.59;;;12.64;99.36
65897;BME280;52677;50.898;10.854;2022-10-29T02:02:18;99171.75;;;12.60;99.38
65897;BME280;52677;50.898;10.854;2022-10-29T02:06:50;99175.22;;;12.53;98.52
65897;BME280;52677;50.898;10.854;2022-10-29T02:09:04;99179.09;;;12.49;98.70
65897;BME280;52677;50.898;10.854;2022-10-29T02:11:33;99182.25;;;12.47;99.23
65897;BME280;52677;50.898;10.854;2022-10-29T02:14:24;99172.28;;;12.43;100.00
65897;BME280;52677;50.898;10.854;2022-10-29T02:16:06;99173.47;;;12.42;100.00
65897;BME280;52677;50.898;10.854;2022-10-29T02:18:07;99177.72;;;12.35;100.00
65897;BME280;52677;50.898;10.854;2022-10-29T02:20:10;99172.91;;;12.32;100.00
65897;BME280;52677;50.898;10.854;2022-10-29T02:22:11;99165.75;;;12.31;100.00
65897;BME280;52677;50.898;10.854;2022-10-29T02:24:11;99172.09;;;12.32;100.00
65897;BME280;52677;50.898;10.854;2022-10-29T02:26:11;99163.72;;;12.28;100.00
65897;BME280;52677;50.898;10.854;2022-10-29T02:28:12;99163.31;;;12.26;99.66
65897;BME280;52677;50.898;10.854;2022-10-29T02:30:12;99160.81;;;12.18;99.92
65897;BME280;52677;50.898;10.854;2022-10-29T02:32:13;99161.09;;;12.13;99.67
65897;BME280;52677;50.898;10.854;2022-10-29T02:34:13;99155.56;;;12.13;99.88
65897;BME280;52677;50.898;10.854;2022-10-29T02:36:13;99152.66;;;12.05;98.86
65897;BME280;52677;50.898;10.854;2022-10-29T02:38:14;99155.41;;;12.02;99.99
65897;BME280;52677;50.898;10.854;2022-10-29T02:40:14;99159.63;;;11.96;100.00
65897;BME280;52677;50.898;10.854;2022-10-29T02:42:14;99152.41;;;11.91;100.00
65897;BME280;52677;50.898;10.854;2022-10-29T02:44:15;99153.25;;;11.92;99.32
65897;BME280;52677;50.898;10.854;2022-10-29T02:46:20;99158.41;;;11.93;99.32
65897;BME280;52677;50.898;10.854;2022-10-29T02:48:20;99154.03;;;11.92;99.14
65897;BME280;52677;50.898;10.854;2022-10-29T02:50:21;99146.81;;;11.88;99.47
65897;BME280;52677;50.898;10.854;2022-10-29T02:52:21;99148.06;;;11.90;99.22
65897;BME280;52677;50.898;10.854;2022-10-29T02:54:22;99145.28;;;11.90;98.35
65897;BME280;52677;50.898;10.854;2022-10-29T02:56:22;99143.22;;;11.84;99.53
65897;BME280;52677;50.898;10.854;2022-10-29T02:58:22;99140.28;;;11.76;100.00
65897;BME280;52677;50.898;10.854;2022-10-29T03:00:22;99145.75;;;11.73;100.00
65897;BME280;52677;50.898;10.854;2022-10-29T03:02:23;99150.44;;;11.69;100.00
65897;BME280;52677;50.898;10.854;2022-10-29T03:04:23;99153.59;;;11.67;100.00
65897;BME280;52677;50.898;10.854;2022-10-29T03:06:23;99150.00;;;11.67;100.00
65897;BME280;52677;50.898;10.854;2022-10-29T03:08:24;99153.22;;;11.69;100.00
65897;BME280;52677;50.898;10.854;2022-10-29T03:10:24;99136.22;;;11.70;99.98
65897;BME280;52677;50.898;10.854;2022-10-29T03:12:24;99148.88;;;11.71;99.72
65897;BME280;52677;50.898;10.854;2022-10-29T03:14:24;99147.72;;;11.72;99.24
65897;BME280;52677;50.898;10.854;2022-10-29T03:16:25;99155.31;;;11.75;98.84
65897;BME280;52677;50.898;10.854;2022-10-29T03:18:25;99153.69;;;11.74;98.64
65897;BME280;52677;50.898;10.854;2022-10-29T03:20:25;99150.56;;;11.76;98.88
65897;BME280;52677;50.898;10.854;2022-10-29T03:22:26;99151.00;;;11.78;99.80
65897;BME280;52677;50.898;10.854;2022-10-29T03:24:26;99151.44;;;11.80;99.75
65897;BME280;52677;50.898;10.854;2022-10-29T03:26:26;99153.25;;;11.72;100.00
65897;BME280;52677;50.898;10.854;2022-10-29T03:28:27;99146.00;;;11.64;100.00
65897;BME280;52677;50.898;10.854;2022-10-29T03:30:27;99146.31;;;11.59;100.00
65897;BME280;52677;50.898;10.854;2022-10-29T03:32:27;99146.91;;;11.49;100.00
65897;BME280;52677;50.898;10.854;2022-10-29T03:34:27;99143.88;;;11.35;100.00
65897;BME280;52677;50.898;10.854;2022-10-29T03:36:28;99139.38;;;11.27;100.00
65897;BME280;52677;50.898;10.854;2022-10-29T03:38:28;99148.72;;;11.18;100.00
65897;BME280;52677;50.898;10.854;2022-10-29T03:40:28;99147.81;;;11.14;100.00
65897;BME280;52677;50.898;10.854;2022-10-29T03:42:29;99153.00;;;11.16;100.00
65897;BME280;52677;50.898;10.854;2022-10-29T03:44:32;99151.09;;;11.20;100.00
65897;BME280;52677;50.898;10.854;2022-10-29T03:46:33;99145.13;;;11.18;100.00
65897;BME280;52677;50.898;10.854;2022-10-29T03:48:33;99159.69;;;11.15;100.00
65897;BME280;52677;50.898;10.854;2022-10-29T03:50:34;99156.06;;;11.11;100.00
65897;BME280;52677;50.898;10.854;2022-10-29T03:52:34;99157.25;;;11.10;100.00
65897;BME280;52677;50.898;10.854;2022-10-29T03:54:34;99161.53;;;11.07;100.00
65897;BME280;52677;50.898;10.854;2022-10-29T03:56:35;99159.94;;;11.06;100.00
65897;BME280;52677;50.898;10.854;2022-10-29T03:58:35;99155.03;;;11.00;100.00
65897;BME280;52677;50.898;10.854;2022-10-29T04:00:35;99168.19;;;11.03;100.00
65897;BME280;52677;50.898;10.854;2022-10-29T04:02:36;99166.56;;;11.02;100.00
65897;BME280;52677;50.898;10.854;2022-10-29T04:04:36;99166.13;;;11.00;100.00
65897;BME280;52677;50.898;10.854;2022-10-29T04:06:36;99167.28;;;10.98;100.00
65897;BME280;52677;50.898;10.854;2022-10-29T04:08:36;99175.16;;;10.96;100.00
65897;BME280;52677;50.898;10.854;2022-10-29T04:10:42;99172.22;;;10.89;100.00
65897;BME280;52677;50.898;10.854;2022-10-29T04:12:45;99178.50;;;10.86;100.00
65897;BME280;52677;50.898;10.854;2022-10-29T04:14:46;99164.16;;;10.81;100.00
65897;BME280;52677;50.898;10.854;2022-10-29T04:16:47;99175.31;;;10.84;100.00
65897;BME280;52677;50.898;10.854;2022-10-29T04:18:48;99162.19;;;10.81;100.00
65897;BME280;52677;50.898;10.854;2022-10-29T04:20:48;99170.47;;;10.81;100.00
65897;BME280;52677;50.898;10.854;2022-10-29T04:22:49;99172.53;;;10.84;100.00
65897;BME280;52677;50.898;10.854;2022-10-29T04:24:50;99171.72;;;10.84;100.00
65897;BME280;52677;50.898;10.854;2022-10-29T04:26:51;99174.13;;;10.85;100.00
65897;BME280;52677;50.898;10.854;2022-10-29T04:28:51;99165.31;;;10.80;100.00
65897;BME280;52677;50.898;10.854;2022-10-29T04:30:52;99178.34;;;10.79;100.00
65897;BME280;52677;50.898;10.854;2022-10-29T04:32:56;99179.41;;;10.75;100.00
65897;BME280;52677;50.898;10.854;2022-10-29T04:34:57;99176.22;;;10.73;100.00
65897;BME280;52677;50.898;10.854;2022-10-29T04:36:57;99186.44;;;10.68;100.00
65897;BME280;52677;50.898;10.854;2022-10-29T04:38:57;99180.38;;;10.63;100.00
65897;BME280;52677;50.898;10.854;2022-10-29T04:40:58;99180.63;;;10.58;100.00
65897;BME280;52677;50.898;10.854;2022-10-29T04:42:58;99181.81;;;10.57;100.00
65897;BME280;52677;50.898;10.854;2022-10-29T04:44:59;99183.16;;;10.47;100.00
65897;BME280;52677;50.898;10.854;2022-10-29T04:47:00;99182.63;;;10.41;100.00
65897;BME280;52677;50.898;10.854;2022-10-29T04:49:00;99181.31;;;10.35;100.00
65897;BME280;52677;50.898;10.854;2022-10-29T04:51:00;99187.56;;;10.32;100.00
65897;BME280;52677;50.898;10.854;2022-10-29T04:53:02;99185.41;;;10.26;100.00
65897;BME280;52677;50.898;10.854;2022-10-29T04:55:03;99180.94;;;10.21;100.00
65897;BME280;52677;50.898;10.854;2022-10-29T04:57:04;99188.69;;;10.16;100.00
65897;BME280;52677;50.898;10.854;2022-10-29T04:59:04;99197.72;;;10.12;100.00
65897;BME280;52677;50.898;10.854;2022-10-29T05:01:04;99187.72;;;10.08;100.00
65897;BME280;52677;50.898;10.854;2022-10-29T05:03:05;99177.81;;;10.07;100.00
65897;BME280;52677;50.898;10.854;2022-10-29T05:05:05;99189.31;;;10.09;100.00
65897;BME280;52677;50.898;10.854;2022-10-29T05:07:05;99168.47;;;10.11;100.00
65897;BME280;52677;50.898;10.854;2022-10-29T05:09:06;99178.81;;;10.14;100.00
65897;BME280;52677;50.898;10.854;2022-10-29T05:11:06;99173.81;;;10.04;100.00
65897;BME280;52677;50.898;10.854;2022-10-29T05:13:10;99178.13;;;10.02;100.00
65897;BME280;52677;50.898;10.854;2022-10-29T05:15:10;99178.00;;;9.98;100.00
65897;BME280;52677;50.898;10.854;2022-10-29T05:17:11;99178.00;;;9.98;100.00
65897;BME280;52677;50.898;10.854;2022-10-29T05:19:11;99175.97;;;9.95;100.00
65897;BME280;52677;50.898;10.854;2022-10-29T05:21:11;99177.13;;;9.94;100.00
65897;BME280;52677;50.898;10.854;2022-10-29T05:23:12;99178.28;;;9.93;100.00
65897;BME280;52677;50.898;10.854;2022-10-29T05:25:12;99172.66;;;9.90;100.00
65897;BME280;52677;50.898;10.854;2022-10-29T05:27:13;99175.06;;;9.91;100.00
65897;BME280;52677;50.898;10.854;2022-10-29T05:29:13;99178.19;;;9.90;100.00
65897;BME280;52677;50.898;10.854;2022-10-29T05:31:14;99177.81;;;9.91;100.00
65897;BME280;52677;50.898;10.854;2022-10-29T05:33:16;99173.47;;;9.90;100.00
65897;BME280;52677;50.898;10.854;2022-10-29T05:35:17;99157.97;;;9.85;100.00
65897;BME280;52677;50.898;10.854;2022-10-29T05:37:17;99178.28;;;9.93;100.00
65897;BME280;52677;50.898;10.854;2022-10-29T05:39:18;99178.38;;;9.97;100.00
65897;BME280;52677;50.898;10.854;2022-10-29T05:41:18;99164.19;;;9.98;100.00
65897;BME280;52677;50.898;10.854;2022-10-29T05:43:18;99168.28;;;10.04;100.00
65897;BME280;52677;50.898;10.854;2022-10-29T05:45:19;99174.63;;;10.05;100.00
65897;BME280;52677;50.898;10.854;2022-10-29T05:47:19;99174.69;;;10.08;100.00
65897;BME280;52677;50.898;10.854;2022-10-29T05:49:20;99168.38;;;10.08;100.00
65897;BME280;52677;50.898;10.854;2022-10-29T05:51:20;99175.88;;;10.07;100.00
65897;BME280;52677;50.898;10.854;2022-10-29T05:53:20;99169.53;;;10.07;100.00
65897;BME280;52677;50.898;10.854;2022-10-29T05:55:21;99169.16;;;10.08;100.00
65897;BME280;52677;50.898;10.854;2022-10-29T05:57:21;99175.97;;;10.11;100.00
65897;BME280;52677;50.898;10.854;2022-10-29T05:59:21;99174.25;;;10.06;100.00
65897;BME280;52677;50.898;10.854;2022-10-29T06:01:21;99182.38;;;9.99;100.00
65897;BME280;52677;50.898;10.854;2022-10-29T06:03:22;99175.97;;;9.95;100.00
65897;BME280;52677;50.898;10.854;2022-10-29T06:05:22;99179.16;;;9.97;100.00
65897;BME280;52677;50.898;10.854;2022-10-29T06:07:23;99174.69;;;9.93;100.00
65897;BME280;52677;50.898;10.854;2022-10-29T06:09:23;99182.84;;;9.85;100.00
65897;BME280;52677;50.898;10.854;2022-10-29T06:11:23;99174.81;;;9.80;100.00
65897;BME280;52677;50.898;10.854;2022-10-29T06:13:24;99188.53;;;9.77;100.00
65897;BME280;52677;50.898;10.854;2022-10-29T06:15:24;99181.66;;;9.71;100.00
65897;BME280;52677;50.898;10.854;2022-10-29T06:17:25;99185.03;;;9.64;100.00
65897;BME280;52677;50.898;10.854;2022-10-29T06:19:25;99178.34;;;9.65;100.00
65897;BME280;52677;50.898;10.854;2022-10-29T06:21:25;99181.13;;;9.65;100.00
65897;BME280;52677;50.898;10.854;2022-10-29T06:23:26;99175.94;;;9.64;100.00
65897;BME280;52677;50.898;10.854;2022-10-29T06:25:27;99180.75;;;9.67;100.00
65897;BME280;52677;50.898;10.854;2022-10-29T06:27:27;99168.53;;;9.68;100.00
65897;BME280;52677;50.898;10.854;2022-10-29T06:29:28;99163.94;;;9.72;100.00
65897;BME280;52677;50.898;10.854;2022-10-29T06:31:28;99175.97;;;9.79;100.00
65897;BME280;52677;50.898;10.854;2022-10-29T06:33:28;99175.53;;;9.77;100.00
65897;BME280;52677;50.898;10.854;2022-10-29T06:35:29;99179.16;;;9.81;100.00
65897;BME280;52677;50.898;10.854;2022-10-29T06:37:30;99174.44;;;9.82;100.00
65897;BME280;52677;50.898;10.854;2022-10-29T06:39:32;99179.00;;;9.90;100.00
65897;BME280;52677;50.898;10.854;2022-10-29T06:41:32;99166.94;;;9.98;100.00
65897;BME280;52677;50.898;10.854;2022-10-29T06:43:33;99165.09;;;10.02;100.00
65897;BME280;52677;50.898;10.854;2022-10-29T06:45:33;99158.41;;;10.03;100.00
65897;BME280;52677;50.898;10.854;2022-10-29T06:47:40;99161.59;;;10.05;100.00
65897;BME280;52677;50.898;10.854;2022-10-29T06:49:41;99163.19;;;10.06;100.00
65897;BME280;52677;50.898;10.854;2022-10-29T06:51:41;99152.59;;;10.08;100.00
65897;BME280;52677;50.898;10.854;2022-10-29T06:53:42;99161.78;;;10.12;100.00
65897;BME280;52677;50.898;10.854;2022-10-29T06:55:42;99162.22;;;10.14;100.00
65897;BME280;52677;50.898;10.854;2022-10-29T06:57:42;99162.75;;;10.20;100.00
65897;BME280;52677;50.898;10.854;2022-10-29T06:59:42;99162.50;;;10.25;100.00
65897;BME280;52677;50.898;10.854;2022-10-29T07:01:43;99166.88;;;10.26;100.00
65897;BME280;52677;50.898;10.854;2022-10-29T07:03:45;99169.19;;;10.24;100.00
65897;BME280;52677;50.898;10.854;2022-10-29T07:05:46;99172.75;;;10.25;100.00
65897;BME280;52677;50.898;10.854;2022-10-29T07:07:46;99183.81;;;10.25;100.00
65897;BME280;52677;50.898;10.854;2022-10-29T07:09:47;99185.78;;;10.24;100.00
65897;BME280;52677;50.898;10.854;2022-10-29T07:11:47;99185.09;;;10.27;100.00
65897;BME280;52677;50.898;10.854;2022-10-29T07:13:47;99184.28;;;10.27;100.00
65897;BME280;52677;50.898;10.854;2022-10-29T07:15:47;99188.34;;;10.33;100.00
65897;BME280;52677;50.898;10.854;2022-10-29T07:17:58;99192.91;;;10.41;100.00
65897;BME280;52677;50.898;10.854;2022-10-29T07:19:59;99190.66;;;10.47;100.00
65897;BME280;52677;50.898;10.854;2022-10-29T07:21:59;99191.63;;;10.54;100.00
65897;BME280;52677;50.898;10.854;2022-10-29T07:24:00;99186.63;;;10.60;100.00
65897;BME280;52677;50.898;10.854;2022-10-29T07:26:00;99188.72;;;10.66;100.00
65897;BME280;52677;50.898;10.854;2022-10-29T07:28:11;99179.00;;;10.73;100.00
65897;BME280;52677;50.898;10.854;2022-10-29T07:30:12;99179.16;;;10.80;100.00
65897;BME280;52677;50.898;10.854;2022-10-29T07:32:12;99181.97;;;10.83;100.00
65897;BME280;52677;50.898;10.854;2022-10-29T07:34:13;99183.69;;;10.88;100.00
65897;BME280;52677;50.898;10.854;2022-10-29T07:36:13;99190.91;;;10.92;100.00
65897;BME280;52677;50.898;10.854;2022-10-29T07:38:13;99180.69;;;10.96;100.00
65897;BME280;52677;50.898;10.854;2022-10-29T07:40:14;99184.78;;;11.03;100.00
65897;BME280;52677;50.898;10.854;2022-10-29T07:42:14;99197.09;;;11.05;100.00
65897;BME280;52677;50.898;10.854;2022-10-29T07:44:14;99192.88;;;11.11;100.00
65897;BME280;52677;50.898;10.854;2022-10-29T07:46:15;99185.78;;;11.14;100.00
65897;BME280;52677;50.898;10.854;2022-10-29T07:48:16;99190.69;;;11.20;100.00
65897;BME280;52677;50.898;10.854;2022-10-29T07:50:16;99194.78;;;11.27;100.00
65897;BME280;52677;50.898;10.854;2022-10-29T07:52:17;99201.25;;;11.34;100.00
65897;BME280;52677;50.898;10.854;2022-10-29T07:54:17;99199.34;;;11.38;100.00
65897;BME280;52677;50.898;10.854;2022-10-29T07:56:17;99201.84;;;11.43;100.00
65897;BME280;52677;50.898;10.854;2022-10-29T07:58:17;99205.09;;;11.49;100.00
65897;BME280;52677;50.898;10.854;2022-10-29T08:00:18;99208.38;;;11.54;100.00
65897;BME280;52677;50.898;10.854;2022-10-29T08:02:18;99206.91;;;11.61;100.00
65897;BME280;52677;50.898;10.854;2022-10-29T08:04:18;99209.38;;;11.66;100.00
65897;BME280;52677;50.898;10.854;2022-10-29T08:06:18;99210.63;;;11.68;100.00
65897;BME280;52677;50.898;10.854;2022-10-29T08:08:19;99207.16;;;11.75;100.00
65897;BME280;52677;50.898;10.854;2022-10-29T08:10:20;99196.94;;;11.79;100.00
65897;BME280;52677;50.898;10.854;2022-10-29T08:12:20;99190.75;;;11.86;100.00
65897;BME280;52677;50.898;10.854;2022-10-29T08:14:21;99193.66;;;11.93;100.00
65897;BME280;52677;50.898;10.854;2022-10-29T08:16:21;99186.63;;;11.99;100.00
65897;BME280;52677;50.898;10.854;2022-10-29T08:18:21;99190.69;;;12.05;100.00
65897;BME280;52677;50.898;10.854;2022-10-29T08:20:24;99178.50;;;12.09;100.00
65897;BME280;52677;50.898;10.854;2022-10-29T08:22:25;99172.63;;;12.15;100.00
65897;BME280;52677;50.898;10.854;2022-10-29T08:24:25;99174.72;;;12.21;100.00
65897;BME280;52677;50.898;10.854;2022-10-29T08:26:25;99179.19;;;12.29;100.00
65897;BME280;52677;50.898;10.854;2022-10-29T08:28:26;99179.63;;;12.31;100.00
65897;BME280;52677;50.898;10.854;2022-10-29T08:30:26;99182.50;;;12.38;100.00
65897;BME280;52677;50.898;10.854;2022-10-29T08:32:27;99172.28;;;12.43;100.00
65897;BME280;52677;50.898;10.854;2022-10-29T08:34:27;99169.16;;;12.48;100.00
65897;BME280;52677;50.898;10.854;2022-10-29T08:36:27;99174.41;;;12.53;100.00
65897;BME280;52677;50.898;10.854;2022-10-29T08:38:27;99171.31;;;12.58;100.00
65897;BME280;52677;50.898;10.854;2022-10-29T08:43:32;99184.22;;;12.73;100.00
65897;BME280;52677;50.898;10.854;2022-10-29T08:45:44;99169.63;;;12.80;100.00
65897;BME280;52677;50.898;10.854;2022-10-29T08:50:35;99169.94;;;13.01;100.00
65897;BME280;52677;50.898;10.854;2022-10-29T08:52:41;99156.88;;;13.05;100.00
65897;BME280;52677;50.898;10.854;2022-10-29T08:54:42;99174.84;;;13.15;100.00
65897;BME280;52677;50.898;10.854;2022-10-29T08:56:50;99173.38;;;13.21;100.00
65897;BME280;52677;50.898;10.854;2022-10-29T09:01:10;99177.09;;;13.32;100.00
65897;BME280;52677;50.898;10.854;2022-10-29T09:03:11;99182.34;;;13.41;100.00
65897;BME280;52677;50.898;10.854;2022-10-29T09:05:14;99179.63;;;13.48;100.00
65897;BME280;52677;50.898;10.854;2022-10-29T09:12:12;99180.69;;;13.73;100.00
65897;BME280;52677;50.898;10.854;2022-10-29T09:16:34;99175.31;;;13.91;100.00
65897;BME280;52677;50.898;10.854;2022-10-29T09:25:16;99167.66;;;14.25;100.00
65897;BME280;52677;50.898;10.854;2022-10-29T09:27:22;99165.72;;;14.33;100.00
65897;BME280;52677;50.898;10.854;2022-10-29T09:29:45;99159.81;;;14.42;100.00
65897;BME280;52677;50.898;10.854;2022-10-29T09:31:54;99163.09;;;14.51;100.00
65897;BME280;52677;50.898;10.854;2022-10-29T09:34:01;99156.34;;;14.55;100.00
65897;BME280;52677;50.898;10.854;2022-10-29T09:36:17;99151.59;;;14.59;100.00
65897;BME280;52677;50.898;10.854;2022-10-29T09:38:40;99147.28;;;14.66;100.00
65897;BME280;52677;50.898;10.854;2022-10-29T09:40:45;99156.84;;;14.72;100.00
65897;BME280;52677;50.898;10.854;2022-10-29T09:42:46;99154.09;;;14.75;100.00
65897;BME280;52677;50.898;10.854;2022-10-29T09:44:53;99158.91;;;14.82;100.00
65897;BME280;52677;50.898;10.854;2022-10-29T09:51:20;99149.44;;;15.01;100.00
65897;BME280;52677;50.898;10.854;2022-10-29T09:53:22;99145.84;;;15.04;99.84
65897;BME280;52677;50.898;10.854;2022-10-29T09:55:25;99143.88;;;15.11;99.80
65897;BME280;52677;50.898;10.854;2022-10-29T09:57:27;99151.50;;;15.14;98.63
65897;BME280;52677;50.898;10.854;2022-10-29T09:59:35;99145.50;;;15.16;98.36
65897;BME280;52677;50.898;10.854;2022-10-29T10:01:39;99152.28;;;15.22;97.89
65897;BME280;52677;50.898;10.854;2022-10-29T10:03:41;99146.34;;;15.27;97.66
65897;BME280;52677;50.898;10.854;2022-10-29T10:06:06;99149.16;;;15.38;97.72
65897;BME280;52677;50.898;10.854;2022-10-29T10:08:12;99144.81;;;15.40;96.96
65897;BME280;52677;50.898;10.854;2022-10-29T10:10:21;99144.78;;;15.44;96.49
65897;BME280;52677;50.898;10.854;2022-10-29T10:12:27;99142.81;;;15.52;96.20
65897;BME280;52677;50.898;10.854;2022-10-29T10:14:27;99146.81;;;15.51;96.92
65897;BME280;52677;50.898;10.854;2022-10-29T10:16:32;99144.03;;;15.51;96.42
65897;BME280;52677;50.898;10.854;2022-10-29T10:18:39;99151.19;;;15.55;97.76
65897;BME280;52677;50.898;10.854;2022-10-29T10:20:42;99151.25;;;15.62;98.28
65897;BME280;52677;50.898;10.854;2022-10-29T10:22:47;99149.28;;;15.73;97.54
65897;BME280;52677;50.898;10.854;2022-10-29T10:24:47;99151.66;;;15.79;95.71
65897;BME280;52677;50.898;10.854;2022-10-29T10:26:48;99141.31;;;15.86;95.67
65897;BME280;52677;50.898;10.854;2022-10-29T10:29:02;99145.31;;;15.99;94.58
65897;BME280;52677;50.898;10.854;2022-10-29T10:33:11;99144.13;;;16.15;95.31
65897;BME280;52677;50.898;10.854;2022-10-29T10:35:26;99143.31;;;16.21;97.07
65897;BME280;52677;50.898;10.854;2022-10-29T10:37:30;99145.69;;;16.34;97.33
65897;BME280;52677;50.898;10.854;2022-10-29T10:39:43;99148.88;;;16.43;96.27
65897;BME280;52677;50.898;10.854;2022-10-29T10:41:44;99142.91;;;16.48;95.54
65897;BME280;52677;50.898;10.854;2022-10-29T10:43:45;99135.69;;;16.54;95.94
65897;BME280;52677;50.898;10.854;2022-10-29T10:45:53;99130.91;;;16.58;95.57
65897;BME280;52677;50.898;10.854;2022-10-29T10:47:56;99129.28;;;16.64;95.20
65897;BME280;52677;50.898;10.854;2022-10-29T10:50:19;99137.28;;;16.73;94.17
65897;BME280;52677;50.898;10.854;2022-10-29T10:52:27;99123.69;;;16.78;93.22
65897;BME280;52677;50.898;10.854;2022-10-29T10:54:37;99128.06;;;16.83;91.73
65897;BME280;52677;50.898;10.854;2022-10-29T10:56:54;99131.63;;;16.87;92.04
65897;BME280;52677;50.898;10.854;2022-10-29T10:59:02;99129.25;;;16.89;91.11
65897;BME280;52677;50.898;10.854;2022-10-29T11:03:31;99104.91;;;16.90;91.14
65897;BME280;52677;50.898;10.854;2022-10-29T11:05:42;99110.47;;;16.90;90.81
65897;BME280;52677;50.898;10.854;2022-10-29T11:10:12;99100.88;;;16.94;90.57
65897;BME280;52677;50.898;10.854;2022-10-29T11:12:41;99092.88;;;17.00;90.31
65897;BME280;52677;50.898;10.854;2022-10-29T11:15:18;99099.63;;;17.02;90.70
65897;BME280;52677;50.898;10.854;2022-10-29T11:17:26;99094.03;;;17.02;90.22
65897;BME280;52677;50.898;10.854;2022-10-29T11:19:46;99094.84;;;17.03;90.41
65897;BME280;52677;50.898;10.854;2022-10-29T11:24:24;99082.81;;;17.13;90.08
65897;BME280;52677;50.898;10.854;2022-10-29T11:26:47;99068.03;;;17.12;90.08
65897;BME280;52677;50.898;10.854;2022-10-29T11:29:09;99083.19;;;17.19;91.28
65897;BME280;52677;50.898;10.854;2022-10-29T11:31:38;99083.19;;;17.19;90.76
65897;BME280;52677;50.898;10.854;2022-10-29T11:33:49;99080.78;;;17.17;92.43
65897;BME280;52677;50.898;10.854;2022-10-29T11:38:19;99070.41;;;17.21;92.92
65897;BME280;52677;50.898;10.854;2022-10-29T11:40:33;99080.34;;;17.26;93.25
65897;BME280;52677;50.898;10.854;2022-10-29T11:42:36;99075.53;;;17.26;93.33